East Canyon Creek Flow Near ECWRF

♦ The data used to create the chart above are available in the table below.
♦ You may freely copy and paste the table below for further analysis.
♦ If higher frequency or longer history data are required, click here for the USGS NWISWeb page. The East Canyon Creek gage below the East Canyon Water Reclamation Facility is 10133800.
♦ For ECWRF data, contact Michael Boyle, Operations Manager, at 435.214.5229.
♦ The Utah Division of Wildlife Resources has advised that a minimum flow of 3.5 cfs, preferably 6.0 cfs, is required to support East Canyon Creek's cold-water fishery.

Disclaimer
The Snyderville Basin Water Reclamation District provides no warranty, expressed or implied, as to the relevance, accuracy, reliability or completeness of the data. The link to the USGS NWISWeb page is for convenience only. The Snyderville Basin Water Reclamation District does not have any control over the collection or maintenance of the stream flow data at the East Canyon Creek gage below ECWRF and cannot guarantee the relevance, timeliness, or accuracy of that data.

Provisional Flow Data (cfs)
Date Downstream Flow ECWRF Flow Upstream Flow % ECWRF Flow
2/12/2021 22.5 4.25 18.25 18.89
2/13/2021 22.9 4.47 18.43 19.52
2/14/2021 20.8 4.5 16.3 21.63
2/15/2021 19.7 4.26 15.44 21.62
2/16/2021 20.9 4.09 16.81 19.57
2/17/2021 20.9 4.03 16.87 19.28
2/18/2021 18.5 4.04 14.46 21.84
2/19/2021 20 4.17 15.83 20.85
2/20/2021 20.9 4.33 16.57 20.72
2/21/2021 19.9 4.27 15.63 21.46
2/22/2021 19.4 4 15.4 20.62
2/23/2021 19.2 3.9 15.3 20.31
2/24/2021 18.2 3.91 14.29 21.48
2/25/2021 18.5 4.01 14.49 21.68
2/26/2021 18.1 4.19 13.91 23.15
2/27/2021 17.6 4.33 13.27 24.60
2/28/2021 18.4 4.33 14.07 23.53
3/1/2021 18.4 4.03 14.37 21.90
3/2/2021 19.7 3.88 15.82 19.70
3/3/2021 19.9 3.94 15.96 19.80
3/4/2021 21.2 4.1 17.1 19.34
3/5/2021 22 4.25 17.75 19.32
3/6/2021 23.8 4.42 19.38 18.57
3/7/2021 25.7 4.54 21.16 17.67
3/8/2021 29.1 4.45 24.65 15.29
3/9/2021 30.2 4.38 25.82 14.50
3/10/2021 26.7 4.28 22.42 16.03
3/11/2021 26.3 4.28 22.02 16.27
3/12/2021 24.6 4.35 20.25 17.68
3/13/2021 23.5 4.46 19.04 18.98
3/14/2021 25.1 4.21 20.89 16.77
3/15/2021 30.3 4.4 25.9 14.52
3/16/2021 39.3 4.46 34.84 11.35
3/17/2021 36.3 4.42 31.88 12.18
3/18/2021 40.1 5.28 34.82 13.17
3/19/2021 47.9 5.58 42.32 11.65
3/20/2021 62.2 6.05 56.15 9.73
3/21/2021 47 6 41 12.77
3/22/2021 35.5 5.45 30.05 15.35
3/23/2021 31.2 5.09 26.11 16.31
3/24/2021 31 4.94 26.06 15.94
3/25/2021 31.9 4.87 27.03 15.27
3/26/2021 31.4 4.78 26.62 15.22
3/27/2021 32.7 4.68 28.02 14.31
3/28/2021 35.3 4.82 30.48 13.65
3/29/2021 38.2 4.86 33.34 12.72
3/30/2021 32.5 4.75 27.75 14.62
3/31/2021 30.7 4.57 26.13 14.89
4/1/2021 33 4.62 28.38 14.00
4/2/2021 38.1 4.77 33.33 12.52
4/3/2021 41.7 4.44 37.26 10.65
4/4/2021 44.8 4.41 40.39 9.84
4/5/2021 45.8 4.39 41.41 9.59
4/6/2021 49.6 4.71 44.89 9.50
4/7/2021 39.9 4.48 35.42 11.23
4/8/2021 36.6 4.44 32.16 12.13
4/9/2021 35.7 4.4 31.3 12.32
4/10/2021 33.8 4.39 29.41 12.99
4/11/2021 34 4.38 29.62 12.88
4/12/2021 31.9 4.16 27.74 13.04